Time;durP1;ratioP1;P1;durP2;ratioP2;P2;SDS_P1;SDS_P2;PMS_P1;PMS_P2;Temp;Humidity;BMP_temperature;BMP_pressure;BME280_temperature;BME280_humidity;BME280_pressure;Samples;Min_cycle;Max_cycle;Signal;HPM_P1;HPM_P2
2021/09/16 00:01:36;;;;;;;6.57;3.30;;;19.50;99.90;;;;;;4981825;28;20934;-53
2021/09/16 00:04:02;;;;;;;7.20;3.20;;;19.50;99.90;;;;;;4990811;28;20796;-53
2021/09/16 00:06:28;;;;;;;8.80;3.28;;;19.50;99.90;;;;;;4991478;28;20418;-53
2021/09/16 00:08:54;;;;;;;9.33;3.30;;;19.40;99.90;;;;;;4991472;28;20465;-53
2021/09/16 00:11:19;;;;;;;7.60;3.40;;;19.40;99.90;;;;;;4990713;28;20387;-53
2021/09/16 00:13:45;;;;;;;7.30;3.10;;;19.60;99.90;;;;;;4991552;28;20807;-53
2021/09/16 00:16:11;;;;;;;8.73;3.50;;;19.60;99.90;;;;;;4988496;28;20443;-52
2021/09/16 00:18:37;;;;;;;6.53;3.30;;;19.50;99.90;;;;;;4971814;28;20388;-52
2021/09/16 00:21:03;;;;;;;8.55;3.22;;;19.50;99.90;;;;;;4971015;28;20395;-53
2021/09/16 00:23:28;;;;;;;6.85;3.30;;;19.40;99.90;;;;;;4971763;28;20395;-52
2021/09/16 00:25:54;;;;;;;7.30;3.80;;;19.40;99.90;;;;;;4972053;28;20399;-53
2021/09/16 00:28:20;;;;;;;6.05;3.13;;;19.40;99.90;;;;;;4970819;28;20516;-53
2021/09/16 00:30:45;;;;;;;8.73;3.80;;;19.30;99.90;;;;;;4970301;28;20439;-52
2021/09/16 00:33:11;;;;;;;6.50;3.50;;;18.70;99.90;;;;;;4970879;28;20428;-52
2021/09/16 00:35:37;;;;;;;7.70;3.70;;;19.30;99.90;;;;;;4971559;28;20381;-52
2021/09/16 00:38:02;;;;;;;6.50;3.60;;;19.20;99.90;;;;;;4970334;28;20392;-53
2021/09/16 00:40:29;;;;;;;8.13;4.07;;;19.20;99.90;;;;;;4971476;28;20392;-52
2021/09/16 00:42:55;;;;;;;6.75;3.60;;;19.00;99.90;;;;;;4970051;28;20754;-52
2021/09/16 00:45:20;;;;;;;7.13;3.50;;;19.00;99.90;;;;;;4970531;28;20443;-53
2021/09/16 00:47:48;;;;;;;6.38;3.50;;;18.90;99.90;;;;;;4971768;28;20471;-52
2021/09/16 00:50:16;;;;;;;7.03;3.70;;;18.90;99.90;;;;;;4970504;28;20396;-52
2021/09/16 00:52:42;;;;;;;6.40;3.42;;;19.00;99.90;;;;;;4971648;28;20443;-52
2021/09/16 00:55:10;;;;;;;7.82;3.28;;;19.00;99.90;;;;;;4969032;28;20411;-52
2021/09/16 00:57:38;;;;;;;6.47;3.90;;;19.10;99.90;;;;;;4971071;28;20490;-52
2021/09/16 01:00:07;;;;;;;7.45;3.60;;;19.20;99.90;;;;;;4970537;28;20435;-53
2021/09/16 01:02:34;;;;;;;6.13;3.40;;;19.30;99.90;;;;;;4970909;28;20912;-52
2021/09/16 01:05:01;;;;;;;6.60;3.42;;;19.30;99.90;;;;;;4971091;28;20423;-53
2021/09/16 01:07:27;;;;;;;5.47;2.90;;;19.20;99.90;;;;;;4971156;28;20854;-53
2021/09/16 01:09:53;;;;;;;7.07;3.13;;;19.20;99.90;;;;;;4971523;28;20387;-52
2021/09/16 01:12:19;;;;;;;6.55;3.40;;;19.40;99.90;;;;;;4970358;28;20945;-52
2021/09/16 01:14:45;;;;;;;6.50;2.97;;;19.50;99.90;;;;;;4970724;28;20471;-52
2021/09/16 01:17:11;;;;;;;6.57;3.05;;;19.50;99.90;;;;;;4970140;28;20412;-53
2021/09/16 01:19:37;;;;;;;8.60;3.30;;;19.50;99.90;;;;;;4971052;28;20833;-52
2021/09/16 01:22:04;;;;;;;6.20;2.73;;;19.60;99.90;;;;;;4970230;28;20420;-53
2021/09/16 01:24:29;;;;;;;8.20;3.10;;;19.50;99.90;;;;;;4970763;28;20423;-53
2021/09/16 01:26:55;;;;;;;5.70;2.80;;;19.40;99.90;;;;;;4970742;28;20498;-52
2021/09/16 01:29:21;;;;;;;6.03;2.60;;;19.50;99.90;;;;;;4970018;28;20384;-53
2021/09/16 01:31:51;;;;;;;6.30;2.60;;;19.50;99.90;;;;;;4971037;28;20387;-53
2021/09/16 01:34:18;;;;;;;8.38;2.80;;;19.50;99.90;;;;;;4970019;28;20482;-53
2021/09/16 01:36:46;;;;;;;6.07;2.70;;;19.50;99.90;;;;;;4970260;28;20415;-53
2021/09/16 01:39:15;;;;;;;6.78;2.40;;;19.50;99.90;;;;;;4969901;28;20385;-53
2021/09/16 01:41:41;;;;;;;7.32;2.63;;;19.50;99.90;;;;;;4970658;28;20499;-53
2021/09/16 01:44:07;;;;;;;5.60;2.20;;;19.60;99.90;;;;;;4969776;28;20467;-53
2021/09/16 01:46:33;;;;;;;5.40;2.20;;;19.60;99.90;;;;;;4970581;28;20504;-52
2021/09/16 01:49:00;;;;;;;7.88;2.47;;;19.60;99.90;;;;;;4969571;28;20399;-53
2021/09/16 01:51:27;;;;;;;5.13;2.20;;;19.60;99.90;;;;;;4970349;28;20388;-53
2021/09/16 01:53:52;;;;;;;6.40;2.23;;;19.60;99.90;;;;;;4970267;28;20380;-53
2021/09/16 01:56:18;;;;;;;5.72;2.17;;;19.60;99.90;;;;;;4969953;28;20431;-52
2021/09/16 01:58:44;;;;;;;6.38;2.10;;;19.70;99.90;;;;;;4970278;28;20388;-53
2021/09/16 02:01:09;;;;;;;6.10;2.00;;;19.70;99.90;;;;;;4969525;28;20399;-53
2021/09/16 02:03:35;;;;;;;4.90;2.30;;;19.70;99.90;;;;;;4970577;28;20388;-53
2021/09/16 02:06:01;;;;;;;5.18;2.30;;;19.80;99.90;;;;;;4970271;28;20400;-54
2021/09/16 02:08:27;;;;;;;6.03;2.03;;;19.70;99.90;;;;;;4969941;28;20395;-53
2021/09/16 02:10:53;;;;;;;6.38;1.80;;;19.70;99.90;;;;;;4970525;28;20730;-53
2021/09/16 02:13:20;;;;;;;4.70;1.70;;;19.60;99.90;;;;;;4969548;28;20878;-53
2021/09/16 02:15:45;;;;;;;5.20;1.90;;;19.60;99.90;;;;;;4970863;28;20515;-53
2021/09/16 02:18:11;;;;;;;6.15;2.20;;;18.30;99.90;;;;;;4970160;28;20792;-53
2021/09/16 02:20:37;;;;;;;5.60;2.30;;;19.60;99.90;;;;;;4970617;28;20744;-53
2021/09/16 02:23:03;;;;;;;6.43;1.98;;;19.70;99.90;;;;;;4969732;28;20479;-54
2021/09/16 02:25:28;;;;;;;5.20;1.90;;;19.70;99.90;;;;;;4970579;28;20913;-52
2021/09/16 02:27:54;;;;;;;5.53;1.80;;;19.80;99.90;;;;;;4970390;28;20415;-52
2021/09/16 02:30:20;;;;;;;4.73;1.80;;;19.70;99.90;;;;;;4969437;28;20372;-53
2021/09/16 02:32:46;;;;;;;5.57;1.70;;;19.60;99.90;;;;;;4970338;28;20384;-53
2021/09/16 02:35:12;;;;;;;6.67;2.00;;;19.70;99.90;;;;;;4969662;28;20873;-53
2021/09/16 02:37:39;;;;;;;4.10;1.80;;;19.70;99.90;;;;;;4969984;28;20866;-53
2021/09/16 02:40:07;;;;;;;6.70;1.70;;;19.60;99.90;;;;;;4969385;28;20404;-53
2021/09/16 02:42:32;;;;;;;5.57;1.75;;;19.40;99.90;;;;;;4970356;28;21132;-52
2021/09/16 02:44:58;;;;;;;4.80;1.73;;;19.50;99.90;;;;;;4970108;28;20384;-53
2021/09/16 02:47:24;;;;;;;4.95;1.40;;;19.40;99.90;;;;;;4969774;28;20727;-53
2021/09/16 02:49:50;;;;;;;4.40;1.52;;;19.40;99.90;;;;;;4970191;28;20406;-52
2021/09/16 02:52:15;;;;;;;6.40;1.80;;;19.40;99.90;;;;;;4969250;28;20474;-53
2021/09/16 02:54:41;;;;;;;4.77;1.77;;;19.40;99.90;;;;;;4969951;28;20905;-52
2021/09/16 02:57:07;;;;;;;5.10;1.90;;;19.30;99.90;;;;;;4969209;28;20530;-53
2021/09/16 02:59:32;;;;;;;4.63;1.80;;;19.40;99.90;;;;;;4970212;28;20392;-53
2021/09/16 03:01:59;;;;;;;4.50;1.70;;;19.50;99.90;;;;;;4973394;28;20380;-53
2021/09/16 03:04:25;;;;;;;4.60;1.80;;;19.50;99.90;;;;;;4972881;28;20400;-52
2021/09/16 03:06:50;;;;;;;6.40;2.50;;;19.40;99.90;;;;;;4973713;28;20435;-53
2021/09/16 03:09:17;;;;;;;5.60;2.40;;;19.40;99.90;;;;;;4977092;28;20412;-53
2021/09/16 03:11:43;;;;;;;6.80;2.20;;;19.50;99.90;;;;;;4993085;28;20382;-53
2021/09/16 03:14:08;;;;;;;5.77;2.10;;;19.50;99.90;;;;;;4992058;28;20397;-53
2021/09/16 03:16:34;;;;;;;5.70;2.33;;;19.40;99.90;;;;;;4993086;28;20899;-52
2021/09/16 03:19:00;;;;;;;6.35;2.50;;;19.40;99.90;;;;;;4991634;28;20469;-53
2021/09/16 03:21:25;;;;;;;5.23;2.30;;;19.40;99.90;;;;;;4992769;28;20386;-53
2021/09/16 03:23:51;;;;;;;5.30;2.50;;;19.30;99.90;;;;;;4979442;28;20472;-52
2021/09/16 03:26:18;;;;;;;5.30;2.70;;;19.30;99.90;;;;;;4972448;28;20388;-53
2021/09/16 03:28:43;;;;;;;5.43;2.35;;;19.30;99.90;;;;;;4973633;28;20408;-56
2021/09/16 03:31:09;;;;;;;5.20;2.40;;;19.30;99.90;;;;;;4972158;28;20393;-52
2021/09/16 03:33:35;;;;;;;5.63;2.10;;;19.20;99.90;;;;;;4972826;28;20870;-53
2021/09/16 03:36:01;;;;;;;6.93;2.30;;;19.20;99.90;;;;;;4973042;28;20898;-52
2021/09/16 03:38:27;;;;;;;6.75;2.63;;;19.30;99.90;;;;;;4972484;28;20421;-53
2021/09/16 03:40:52;;;;;;;5.00;2.20;;;19.30;99.90;;;;;;4972841;28;20439;-53
2021/09/16 03:43:19;;;;;;;5.93;2.50;;;19.20;99.90;;;;;;4972516;28;20941;-53
2021/09/16 03:45:45;;;;;;;7.95;2.70;;;19.30;99.90;;;;;;4987601;28;20432;-53
2021/09/16 03:48:11;;;;;;;5.20;2.20;;;19.30;99.90;;;;;;4972009;28;20423;-53
2021/09/16 03:50:37;;;;;;;5.73;2.50;;;19.40;99.90;;;;;;4972895;28;20388;-53
2021/09/16 03:53:03;;;;;;;5.53;2.20;;;19.30;99.90;;;;;;4982350;28;20413;-54
2021/09/16 03:55:29;;;;;;;5.15;2.33;;;19.30;99.90;;;;;;4991712;28;20484;-52
2021/09/16 03:57:55;;;;;;;8.43;2.50;;;19.20;99.90;;;;;;4991992;28;20411;-52
2021/09/16 04:00:21;;;;;;;5.63;2.30;;;19.20;99.90;;;;;;4988813;28;21194;-52
2021/09/16 04:02:46;;;;;;;7.03;2.00;;;19.20;99.90;;;;;;4975139;28;20389;-53
2021/09/16 04:05:12;;;;;;;7.47;2.25;;;19.20;99.90;;;;;;4971636;28;20445;-53
2021/09/16 04:07:38;;;;;;;6.00;2.22;;;19.40;99.90;;;;;;4988555;28;20485;-52
2021/09/16 04:10:06;;;;;;;5.10;2.40;;;20.20;99.90;;;;;;4988061;28;20396;-54
2021/09/16 04:12:32;;;;;;;8.40;2.70;;;19.40;99.90;;;;;;4981716;28;20378;-52
2021/09/16 04:14:57;;;;;;;6.72;2.40;;;19.40;99.90;;;;;;4980339;28;20894;-53
2021/09/16 04:17:23;;;;;;;5.90;2.37;;;19.40;99.90;;;;;;4980170;28;20461;-52
2021/09/16 04:19:49;;;;;;;6.00;2.10;;;19.40;99.90;;;;;;4982425;28;20391;-52
2021/09/16 04:22:15;;;;;;;7.35;2.22;;;19.40;99.90;;;;;;4980251;28;20862;-52
2021/09/16 04:24:40;;;;;;;5.05;2.20;;;19.40;99.90;;;;;;4981392;28;20412;-52
2021/09/16 04:27:06;;;;;;;5.80;2.42;;;19.30;99.90;;;;;;4981673;28;21036;-52
2021/09/16 04:29:32;;;;;;;5.43;2.17;;;19.20;99.90;;;;;;4981958;28;20442;-52
2021/09/16 04:31:57;;;;;;;5.33;2.20;;;19.40;99.90;;;;;;4980000;28;20379;-52
2021/09/16 04:34:23;;;;;;;5.88;2.15;;;19.40;99.90;;;;;;4981137;28;20492;-52
2021/09/16 04:36:49;;;;;;;6.32;2.42;;;19.40;99.90;;;;;;4979688;28;20419;-52
2021/09/16 04:39:15;;;;;;;6.07;2.37;;;19.40;99.90;;;;;;4979985;28;20479;-52
2021/09/16 04:41:40;;;;;;;5.82;2.17;;;19.40;99.90;;;;;;4983341;28;20931;-52
2021/09/16 04:44:06;;;;;;;5.90;2.30;;;19.40;99.90;;;;;;4971704;28;20499;-53
2021/09/16 04:46:32;;;;;;;5.00;2.00;;;19.40;99.90;;;;;;4971622;28;20487;-52
2021/09/16 04:48:59;;;;;;;5.93;2.10;;;19.50;99.90;;;;;;4973321;28;20381;-52
2021/09/16 04:51:24;;;;;;;5.05;2.15;;;19.60;99.90;;;;;;4988288;28;20478;-52
2021/09/16 04:53:50;;;;;;;5.30;2.20;;;19.60;99.90;;;;;;4987710;28;20470;-52
2021/09/16 04:56:16;;;;;;;4.50;1.70;;;19.60;99.90;;;;;;4988674;28;20773;-53
2021/09/16 04:58:41;;;;;;;5.13;2.35;;;19.70;99.90;;;;;;4990074;28;20422;-53
2021/09/16 05:01:07;;;;;;;5.95;2.30;;;19.70;99.90;;;;;;4988738;28;21062;-53
2021/09/16 05:03:33;;;;;;;5.83;2.40;;;19.70;99.90;;;;;;4988153;28;20398;-52
2021/09/16 05:05:58;;;;;;;6.90;2.60;;;19.80;99.90;;;;;;4990999;28;20437;-53
2021/09/16 05:08:24;;;;;;;6.20;2.60;;;19.90;99.90;;;;;;4988769;28;20386;-53
2021/09/16 05:10:49;;;;;;;4.80;2.22;;;19.90;99.90;;;;;;4990420;28;20382;-51
2021/09/16 05:13:15;;;;;;;6.50;3.00;;;19.80;99.90;;;;;;4989884;28;20420;-51
2021/09/16 05:15:41;;;;;;;5.50;2.42;;;19.70;99.90;;;;;;4990433;28;20974;-51
2021/09/16 05:18:07;;;;;;;5.50;1.93;;;19.70;99.90;;;;;;4988668;28;20396;-51
2021/09/16 05:20:34;;;;;;;5.43;2.40;;;19.70;99.90;;;;;;4990560;28;20394;-51
2021/09/16 05:22:59;;;;;;;5.50;2.50;;;19.50;99.90;;;;;;4990805;28;20397;-51
2021/09/16 05:25:25;;;;;;;7.57;2.53;;;19.60;99.90;;;;;;4990019;28;20398;-52
2021/09/16 05:27:51;;;;;;;6.75;3.08;;;19.60;99.90;;;;;;4990795;28;20394;-52
2021/09/16 05:30:17;;;;;;;6.37;2.60;;;19.60;99.90;;;;;;4989825;28;20383;-51
2021/09/16 05:32:43;;;;;;;5.07;2.42;;;19.60;99.90;;;;;;4989120;28;20740;-52
2021/09/16 05:35:09;;;;;;;6.63;2.70;;;19.50;99.90;;;;;;4989507;28;20871;-51
2021/09/16 05:37:34;;;;;;;5.93;3.00;;;19.50;99.90;;;;;;4990350;28;20418;-52
2021/09/16 05:40:00;;;;;;;5.32;2.50;;;19.40;99.90;;;;;;4990107;28;20887;-53
2021/09/16 05:42:26;;;;;;;7.03;3.50;;;19.30;99.90;;;;;;4989559;28;20421;-52
2021/09/16 05:44:53;;;;;;;5.53;2.40;;;19.30;99.90;;;;;;4990321;28;20386;-52
2021/09/16 05:47:19;;;;;;;8.33;2.80;;;19.10;99.90;;;;;;4989348;28;20429;-51
2021/09/16 05:49:45;;;;;;;5.40;2.75;;;19.00;99.90;;;;;;4982800;28;20406;-52
2021/09/16 05:52:11;;;;;;;6.50;3.30;;;19.00;99.90;;;;;;4988819;28;20394;-51
2021/09/16 05:54:37;;;;;;;7.55;3.85;;;19.10;99.90;;;;;;4989411;28;20429;-53
2021/09/16 05:57:03;;;;;;;10.52;3.70;;;19.20;99.90;;;;;;4989425;28;20884;-55
2021/09/16 05:59:29;;;;;;;9.35;3.30;;;19.20;99.90;;;;;;4989292;28;20390;-50
2021/09/16 06:01:55;;;;;;;6.63;3.17;;;19.40;99.90;;;;;;4989792;28;20713;-52
2021/09/16 06:04:20;;;;;;;8.20;3.53;;;19.30;99.90;;;;;;4984089;28;20410;-54
2021/09/16 06:06:46;;;;;;;8.90;3.67;;;19.40;99.90;;;;;;4984940;28;20397;-53
2021/09/16 06:09:11;;;;;;;6.50;2.80;;;19.40;99.90;;;;;;4980422;28;20759;-53
2021/09/16 06:11:37;;;;;;;7.70;3.10;;;19.40;99.90;;;;;;4983833;28;20483;-57
2021/09/16 06:14:03;;;;;;;8.00;3.25;;;19.40;99.90;;;;;;4984073;28;20768;-52
2021/09/16 06:16:29;;;;;;;7.10;3.20;;;19.40;99.90;;;;;;4983994;28;20784;-51
2021/09/16 06:18:54;;;;;;;6.67;3.10;;;19.40;99.90;;;;;;4982838;28;20403;-52
2021/09/16 06:21:20;;;;;;;6.10;3.30;;;19.50;99.90;;;;;;4978288;28;20394;-52
2021/09/16 06:23:46;;;;;;;8.10;3.30;;;19.50;99.90;;;;;;4986572;28;20410;-52
2021/09/16 06:26:11;;;;;;;6.30;3.20;;;19.40;99.90;;;;;;4979750;28;20405;-52
2021/09/16 06:28:37;;;;;;;7.23;3.50;;;19.40;99.90;;;;;;4985833;28;20383;-51
2021/09/16 06:31:03;;;;;;;7.00;3.20;;;19.40;99.90;;;;;;4979206;28;20407;-51
2021/09/16 06:33:30;;;;;;;7.18;3.40;;;19.30;99.90;;;;;;4980921;28;20436;-54
2021/09/16 06:35:57;;;;;;;6.40;3.40;;;19.30;99.90;;;;;;4988341;28;20414;-52
2021/09/16 06:38:23;;;;;;;7.53;3.45;;;19.30;99.90;;;;;;4992648;28;20478;-51
2021/09/16 06:40:48;;;;;;;7.35;3.15;;;19.40;99.90;;;;;;4993008;28;20486;-54
2021/09/16 06:43:14;;;;;;;7.40;3.90;;;19.30;99.90;;;;;;4981928;28;20437;-52
2021/09/16 06:45:40;;;;;;;8.70;4.80;;;19.30;99.90;;;;;;4984657;28;20402;-51
2021/09/16 06:48:05;;;;;;;10.93;6.20;;;19.30;99.90;;;;;;4980961;28;20392;-56
2021/09/16 06:50:31;;;;;;;11.63;5.90;;;19.40;99.90;;;;;;4981310;28;20459;-51
2021/09/16 06:52:57;;;;;;;8.20;4.65;;;19.40;99.90;;;;;;4983748;28;20403;-52
2021/09/16 06:55:22;;;;;;;9.97;5.77;;;19.40;99.90;;;;;;4983742;28;20502;-51
2021/09/16 06:57:48;;;;;;;8.33;5.43;;;19.40;99.90;;;;;;4986256;28;20427;-52
2021/09/16 07:00:15;;;;;;;10.20;6.30;;;19.50;99.90;;;;;;4988125;28;20397;-51
2021/09/16 07:02:41;;;;;;;14.90;7.25;;;19.50;99.90;;;;;;4987823;28;20457;-51
2021/09/16 07:05:07;;;;;;;13.87;8.50;;;19.40;99.90;;;;;;4983047;28;20764;-55
2021/09/16 07:07:32;;;;;;;16.55;9.02;;;19.30;99.90;;;;;;4987114;28;20394;-51
2021/09/16 07:09:58;;;;;;;12.47;8.07;;;19.20;99.90;;;;;;4983169;28;20493;-53
2021/09/16 07:12:24;;;;;;;17.52;10.00;;;19.30;99.90;;;;;;4982844;28;20503;-53
2021/09/16 07:14:50;;;;;;;16.50;10.20;;;19.20;99.90;;;;;;4984435;28;20391;-53
2021/09/16 07:17:15;;;;;;;18.33;10.50;;;19.20;99.90;;;;;;4979867;28;20420;-51
2021/09/16 07:19:41;;;;;;;20.30;12.10;;;19.10;99.90;;;;;;4980986;28;20477;-52
2021/09/16 07:22:07;;;;;;;18.17;11.65;;;19.00;99.90;;;;;;4986582;28;20487;-51
2021/09/16 07:24:32;;;;;;;22.50;12.13;;;18.80;99.90;;;;;;4982294;28;20408;-52
2021/09/16 07:26:58;;;;;;;22.40;12.87;;;18.80;99.90;;;;;;4980779;28;20427;-52
2021/09/16 07:29:25;;;;;;;20.20;12.18;;;18.90;99.90;;;;;;4984324;28;20390;-51
2021/09/16 07:31:52;;;;;;;22.45;13.90;;;18.80;99.90;;;;;;4981504;28;20384;-51
2021/09/16 07:34:19;;;;;;;21.33;11.98;;;18.80;99.90;;;;;;4982593;28;20389;-50
2021/09/16 07:36:45;;;;;;;22.17;12.00;;;18.70;99.90;;;;;;4985576;28;20422;-51
2021/09/16 07:39:12;;;;;;;22.92;13.63;;;18.80;99.90;;;;;;4982207;28;20394;-51
2021/09/16 07:41:39;;;;;;;24.80;13.38;;;19.00;99.90;;;;;;4982652;28;20404;-50
2021/09/16 07:44:05;;;;;;;22.25;13.07;;;19.10;99.90;;;;;;4982573;28;20410;-50
2021/09/16 07:46:31;;;;;;;23.20;13.90;;;19.10;99.90;;;;;;4985987;28;20780;-52
2021/09/16 07:48:57;;;;;;;21.48;12.60;;;19.10;99.90;;;;;;4984210;28;20485;-51
2021/09/16 07:51:23;;;;;;;22.25;13.40;;;19.10;99.90;;;;;;4979871;28;20455;-51
2021/09/16 07:53:49;;;;;;;22.67;13.93;;;19.00;99.90;;;;;;4980946;28;20447;-52
2021/09/16 07:56:15;;;;;;;20.75;13.43;;;19.40;99.90;;;;;;4980091;28;20437;-52
2021/09/16 07:58:44;;;;;;;22.90;13.87;;;18.80;99.90;;;;;;4982473;28;20477;-51
2021/09/16 08:01:10;;;;;;;20.92;12.85;;;18.60;99.90;;;;;;4980126;28;20547;-52
2021/09/16 08:03:36;;;;;;;23.50;13.13;;;18.50;99.90;;;;;;4981121;28;20477;-52
2021/09/16 08:06:02;;;;;;;24.92;13.50;;;18.50;99.90;;;;;;4980747;28;20547;-52
2021/09/16 08:08:29;;;;;;;21.25;12.48;;;18.50;99.90;;;;;;4979487;28;20376;-53
2021/09/16 08:10:55;;;;;;;22.52;12.63;;;18.50;99.90;;;;;;4981328;28;20406;-52
2021/09/16 08:13:20;;;;;;;22.00;12.93;;;18.60;99.90;;;;;;4981214;28;20388;-55
2021/09/16 08:15:46;;;;;;;23.73;12.25;;;18.60;99.90;;;;;;4980023;28;20912;-53
2021/09/16 08:18:12;;;;;;;15.85;9.88;;;18.60;99.90;;;;;;4985878;28;20447;-52
2021/09/16 08:20:44;;;;;;;17.05;10.00;;;18.60;99.90;;;;;;4982897;28;20413;-53
2021/09/16 08:23:10;;;;;;;14.65;9.02;;;18.70;99.90;;;;;;4982511;28;20876;-56
2021/09/16 08:25:36;;;;;;;13.75;8.18;;;18.50;99.90;;;;;;4983327;28;20500;-53
2021/09/16 08:28:01;;;;;;;12.77;8.33;;;18.50;99.90;;;;;;4984410;28;20472;-53
2021/09/16 08:30:27;;;;;;;13.30;8.10;;;18.30;99.90;;;;;;4982608;28;20579;-53
2021/09/16 08:32:54;;;;;;;15.80;8.45;;;18.30;99.90;;;;;;4986049;28;20394;-53
2021/09/16 08:35:20;;;;;;;12.87;8.10;;;18.20;99.90;;;;;;4982728;28;20387;-52
2021/09/16 08:37:46;;;;;;;14.20;9.45;;;18.10;99.90;;;;;;4985863;28;20915;-52
2021/09/16 08:40:13;;;;;;;14.60;9.50;;;17.90;99.90;;;;;;4977670;28;20475;-51
2021/09/16 08:42:41;;;;;;;16.77;10.63;;;17.90;99.90;;;;;;4979708;28;20398;-52
2021/09/16 08:45:08;;;;;;;17.05;10.70;;;17.80;99.90;;;;;;4982804;28;20419;-56
2021/09/16 08:47:37;;;;;;;15.25;9.60;;;17.80;99.90;;;;;;4983470;28;20395;-53
2021/09/16 08:50:03;;;;;;;14.98;9.85;;;17.90;99.90;;;;;;4984679;28;20788;-52
2021/09/16 08:52:32;;;;;;;15.13;9.80;;;18.00;99.90;;;;;;4981432;28;20446;-52
2021/09/16 08:54:58;;;;;;;13.27;8.63;;;18.10;99.90;;;;;;4980895;28;20454;-52
2021/09/16 08:57:24;;;;;;;13.48;8.75;;;18.20;99.90;;;;;;4976700;28;20465;-52
2021/09/16 08:59:50;;;;;;;13.70;8.38;;;18.30;99.90;;;;;;4990945;28;20448;-52
2021/09/16 09:02:16;;;;;;;13.80;9.10;;;18.40;99.90;;;;;;4976473;28;20396;-52
2021/09/16 09:04:41;;;;;;;15.40;9.40;;;18.40;99.90;;;;;;4982573;28;20418;-52
2021/09/16 09:07:07;;;;;;;13.00;8.10;;;18.30;99.90;;;;;;4982291;28;20871;-54
2021/09/16 09:09:33;;;;;;;13.20;8.48;;;18.30;99.90;;;;;;4984297;28;20441;-54
2021/09/16 09:12:07;;;;;;;14.30;9.10;;;18.30;99.90;;;;;;4983138;28;20424;-54
2021/09/16 09:14:35;;;;;;;12.32;7.95;;;18.30;99.90;;;;;;4970780;28;20458;-54
2021/09/16 09:17:14;;;;;;;12.32;7.80;;;18.30;99.90;;;;;;4970464;28;20806;-54
2021/09/16 09:19:41;;;;;;;12.00;7.50;;;18.20;99.90;;;;;;4971523;28;20395;-54
2021/09/16 09:22:07;;;;;;;11.40;7.23;;;18.10;99.90;;;;;;4983815;28;20392;-54
2021/09/16 09:24:41;;;;;;;11.73;7.15;;;17.90;99.90;;;;;;4986322;28;20402;-54
2021/09/16 09:27:29;;;;;;;11.00;7.03;;;17.90;99.90;;;;;;4985586;28;20402;-54
2021/09/16 09:30:10;;;;;;;10.70;6.50;;;17.90;99.90;;;;;;4974971;28;20403;-54
2021/09/16 09:33:00;;;;;;;11.43;7.38;;;17.90;99.90;;;;;;4970971;28;20489;-54
2021/09/16 09:35:33;;;;;;;10.80;7.60;;;18.00;99.90;;;;;;4977558;28;20421;-54
2021/09/16 09:38:05;;;;;;;14.55;8.90;;;18.20;99.90;;;;;;4984598;28;20417;-54
2021/09/16 09:40:33;;;;;;;15.73;9.38;;;17.90;99.90;;;;;;4983505;28;20390;-54
2021/09/16 09:43:17;;;;;;;18.40;10.70;;;17.80;99.90;;;;;;4982647;28;20411;-54
2021/09/16 09:46:06;;;;;;;20.10;11.75;;;17.50;99.90;;;;;;4970950;28;20762;-53
2021/09/16 09:48:35;;;;;;;19.57;10.87;;;17.40;99.90;;;;;;4978646;28;20406;-54
2021/09/16 09:51:01;;;;;;;21.50;12.30;;;17.20;99.90;;;;;;4988573;28;20382;-54
2021/09/16 09:53:27;;;;;;;20.95;11.75;;;17.10;99.90;;;;;;4982742;28;20574;-55
2021/09/16 09:55:53;;;;;;;20.75;11.90;;;17.10;99.90;;;;;;4979792;28;20502;-54
2021/09/16 09:58:33;;;;;;;22.20;12.30;;;16.90;99.90;;;;;;4985960;28;20402;-53
2021/09/16 10:01:37;;;;;;;21.42;11.40;;;17.00;99.90;;;;;;4977576;28;20400;-54
2021/09/16 10:04:22;;;;;;;22.73;12.18;;;16.90;99.90;;;;;;4983944;28;20406;-55
2021/09/16 10:06:48;;;;;;;23.35;11.40;;;17.00;99.90;;;;;;4976390;28;20404;-54
2021/09/16 10:09:14;;;;;;;22.60;11.20;;;17.10;99.90;;;;;;4978826;28;20750;-54
2021/09/16 10:11:45;;;;;;;19.38;11.30;;;17.20;99.90;;;;;;4993001;28;20386;-54
2021/09/16 10:14:12;;;;;;;19.65;11.23;;;17.00;99.90;;;;;;4984414;28;20411;-54
2021/09/16 10:16:38;;;;;;;20.02;11.20;;;17.10;99.90;;;;;;4984067;28;20462;-55
2021/09/16 10:19:05;;;;;;;18.17;10.73;;;17.40;99.90;;;;;;4976557;28;20925;-55
2021/09/16 10:21:31;;;;;;;20.00;12.40;;;17.50;99.90;;;;;;4982793;28;20472;-53
2021/09/16 10:24:00;;;;;;;18.95;12.05;;;17.70;99.90;;;;;;4974316;28;20956;-54
2021/09/16 10:26:40;;;;;;;18.27;11.20;;;18.00;99.90;;;;;;4974883;28;20410;-53
2021/09/16 10:29:28;;;;;;;18.80;11.55;;;18.20;99.90;;;;;;4982422;28;20418;-53
2021/09/16 10:32:06;;;;;;;20.60;11.73;;;18.40;99.90;;;;;;4973357;28;20435;-52
2021/09/16 10:34:42;;;;;;;18.50;11.97;;;17.00;99.90;;;;;;4973066;28;20392;-53
2021/09/16 10:37:18;;;;;;;19.90;12.50;;;18.60;99.90;;;;;;4983055;28;20418;-54
2021/09/16 10:39:47;;;;;;;20.08;11.50;;;18.60;99.90;;;;;;4985707;28;20883;-54
2021/09/16 10:42:13;;;;;;;19.27;12.32;;;18.60;99.90;;;;;;4988293;28;20401;-54
2021/09/16 10:44:39;;;;;;;18.15;11.73;;;18.70;99.90;;;;;;4990206;28;20418;-54
2021/09/16 10:47:20;;;;;;;19.08;12.02;;;18.80;99.90;;;;;;4982981;28;20823;-54
2021/09/16 10:49:48;;;;;;;17.90;11.20;;;18.90;99.90;;;;;;4987734;28;20395;-54
2021/09/16 10:52:13;;;;;;;19.03;12.20;;;18.90;99.90;;;;;;4989019;28;20482;-54
2021/09/16 10:54:45;;;;;;;18.10;11.55;;;19.00;99.90;;;;;;4977165;28;20522;-54
2021/09/16 10:57:29;;;;;;;19.13;10.90;;;19.10;99.90;;;;;;4980533;28;20428;-54
2021/09/16 10:59:54;;;;;;;17.88;11.18;;;19.20;99.90;;;;;;4995311;28;20416;-54
2021/09/16 11:02:24;;;;;;;18.43;11.53;;;19.10;99.90;;;;;;4983158;28;20405;-54
2021/09/16 11:04:56;;;;;;;18.20;11.90;;;19.10;99.90;;;;;;4982267;28;20405;-53
2021/09/16 11:10:20;;;;;;;17.25;10.55;;;19.30;99.90;;;;;;4973108;28;20400;-54
2021/09/16 11:12:49;;;;;;;18.50;11.20;;;19.20;99.90;;;;;;4988270;28;20392;-53
2021/09/16 11:15:26;;;;;;;21.15;11.73;;;19.20;99.90;;;;;;4985110;28;20460;-54
2021/09/16 11:18:02;;;;;;;20.73;11.90;;;18.80;99.90;;;;;;4985210;28;20470;-53
2021/09/16 11:20:27;;;;;;;22.17;12.63;;;19.00;99.90;;;;;;4986725;28;20406;-54
2021/09/16 11:22:53;;;;;;;18.33;12.00;;;19.20;99.90;;;;;;4985096;28;20395;-53
2021/09/16 11:25:19;;;;;;;18.43;11.40;;;19.40;99.90;;;;;;4983951;28;20880;-54
2021/09/16 11:27:44;;;;;;;18.02;10.60;;;19.20;99.90;;;;;;4978238;28;20562;-54
2021/09/16 11:30:16;;;;;;;18.65;10.75;;;18.90;99.90;;;;;;4985399;28;20485;-55
2021/09/16 11:32:43;;;;;;;16.95;11.40;;;18.80;99.90;;;;;;4985761;28;20461;-54
2021/09/16 11:35:17;;;;;;;19.42;10.65;;;18.80;99.90;;;;;;4984118;28;20864;-54
2021/09/16 11:37:53;;;;;;;19.20;10.57;;;18.60;99.90;;;;;;4972849;28;20416;-54
2021/09/16 11:40:26;;;;;;;19.00;11.32;;;18.80;99.90;;;;;;4971835;28;20392;-54
2021/09/16 11:42:55;;;;;;;16.95;10.70;;;19.00;99.90;;;;;;4972032;28;20857;-54
2021/09/16 11:45:23;;;;;;;18.85;11.20;;;19.30;99.90;;;;;;4977040;28;20409;-54
2021/09/16 11:48:14;;;;;;;18.52;11.20;;;19.50;99.90;;;;;;4987378;28;20400;-52
2021/09/16 11:51:01;;;;;;;17.88;11.13;;;19.50;99.90;;;;;;4983575;28;20412;-54
2021/09/16 11:53:29;;;;;;;20.00;12.00;;;19.50;99.90;;;;;;4971866;28;20412;-54
2021/09/16 11:55:59;;;;;;;21.23;11.68;;;19.30;99.90;;;;;;4971684;28;20485;-54
2021/09/16 11:58:26;;;;;;;19.83;11.55;;;19.20;99.90;;;;;;4986012;28;20410;-54
2021/09/16 12:00:54;;;;;;;21.60;12.60;;;19.20;99.90;;;;;;4972536;28;20948;-53
2021/09/16 12:03:24;;;;;;;20.90;11.70;;;19.20;99.90;;;;;;4971482;28;20392;-54
2021/09/16 12:06:00;;;;;;;23.83;12.90;;;19.20;99.90;;;;;;4987091;28;20428;-54
2021/09/16 12:08:27;;;;;;;23.40;12.00;;;19.10;99.90;;;;;;4976989;28;20896;-54
2021/09/16 12:10:59;;;;;;;18.10;11.63;;;19.10;99.90;;;;;;4987851;28;20407;-54
2021/09/16 12:13:38;;;;;;;20.25;12.45;;;18.80;99.90;;;;;;4987877;28;20896;-54
2021/09/16 12:16:05;;;;;;;20.02;12.70;;;18.80;99.90;;;;;;4986085;28;20390;-55
2021/09/16 12:18:34;;;;;;;22.65;12.43;;;18.80;99.90;;;;;;4989977;28;21048;-54
2021/09/16 12:21:02;;;;;;;21.13;13.00;;;19.20;99.90;;;;;;4988775;28;20409;-53
2021/09/16 12:23:27;;;;;;;21.73;12.50;;;19.30;99.90;;;;;;4979445;28;20411;-53
2021/09/16 12:26:19;;;;;;;21.67;13.77;;;19.20;99.90;;;;;;4988203;28;20386;-53
2021/09/16 12:29:10;;;;;;;19.80;12.80;;;19.00;99.90;;;;;;4971303;28;20961;-53
2021/09/16 12:31:38;;;;;;;20.87;13.50;;;19.20;99.90;;;;;;4962302;28;20411;-53
2021/09/16 12:34:09;;;;;;;22.33;13.43;;;19.30;99.90;;;;;;4971171;28;20396;-53
2021/09/16 12:36:37;;;;;;;22.25;14.20;;;19.30;99.90;;;;;;4954225;28;20408;-53
2021/09/16 12:39:13;;;;;;;24.65;13.55;;;19.00;99.90;;;;;;4982533;28;20550;-53
2021/09/16 12:41:51;;;;;;;20.00;12.97;;;19.00;99.90;;;;;;4971348;28;20403;-54
2021/09/16 12:44:25;;;;;;;25.13;15.55;;;19.00;99.90;;;;;;4970891;28;21054;-54